createdAt,value
2018-07-04T00:00:52.382Z,22.87
2018-07-04T00:01:53.016Z,22.90
2018-07-04T00:02:53.646Z,22.88
2018-07-04T00:03:54.224Z,22.88
2018-07-04T00:04:54.800Z,22.88
2018-07-04T00:05:55.375Z,22.88
2018-07-04T00:06:55.949Z,22.87
2018-07-04T00:07:56.582Z,22.83
2018-07-04T00:08:57.209Z,22.83
2018-07-04T00:10:59.368Z,22.88
2018-07-04T00:11:59.944Z,22.90
2018-07-04T00:13:14.347Z,22.96
2018-07-04T00:14:32.708Z,22.91
2018-07-04T00:15:33.292Z,22.87
2018-07-04T00:16:33.872Z,22.87
2018-07-04T00:17:34.469Z,22.90
2018-07-04T00:18:35.097Z,22.94
2018-07-04T00:19:35.687Z,22.93
2018-07-04T00:21:37.844Z,22.88
2018-07-04T00:23:39.984Z,22.88
2018-07-04T00:24:40.616Z,22.87
2018-07-04T00:25:41.247Z,22.87
2018-07-04T00:26:41.776Z,22.87
2018-07-04T00:27:42.405Z,22.88
2018-07-04T00:28:42.982Z,22.88
2018-07-04T00:29:43.564Z,22.96
2018-07-04T00:30:44.143Z,22.88
2018-07-04T00:31:44.720Z,22.93
2018-07-04T00:32:45.298Z,22.91
2018-07-04T00:33:45.878Z,22.87
2018-07-04T00:34:46.454Z,22.87
2018-07-04T00:35:47.076Z,22.88
2018-07-04T00:36:47.659Z,22.94
2018-07-04T00:37:48.235Z,22.88
2018-07-04T00:38:48.820Z,22.83
2018-07-04T00:39:49.446Z,22.84
2018-07-04T00:40:50.018Z,22.88
2018-07-04T00:41:50.600Z,22.87
2018-07-04T00:42:51.173Z,22.90
2018-07-04T00:43:51.756Z,22.85
2018-07-04T00:44:52.394Z,22.88
2018-07-04T00:45:52.982Z,22.88
2018-07-04T00:46:53.570Z,22.85
2018-07-04T00:47:54.157Z,22.87
2018-07-04T00:48:54.797Z,22.88
2018-07-04T00:49:55.386Z,22.83
2018-07-04T00:50:55.973Z,22.84
2018-07-04T00:51:56.557Z,22.85
2018-07-04T00:52:57.197Z,22.84
2018-07-04T00:53:57.785Z,22.91
2018-07-04T00:54:58.370Z,22.83
2018-07-04T00:55:58.957Z,22.88
2018-07-04T00:56:59.546Z,22.88
2018-07-04T00:58:00.128Z,22.87
2018-07-04T00:59:00.717Z,22.88
2018-07-04T01:00:01.346Z,22.84
2018-07-04T01:01:01.933Z,22.83
2018-07-04T01:02:02.520Z,22.83
2018-07-04T01:03:03.106Z,22.88
2018-07-04T01:04:03.689Z,22.83
2018-07-04T01:05:04.271Z,22.84
2018-07-04T01:06:04.859Z,22.80
2018-07-04T01:07:05.441Z,22.80
2018-07-04T01:08:06.078Z,22.81
2018-07-04T01:09:06.665Z,22.76
2018-07-04T01:10:07.253Z,22.72
2018-07-04T01:11:07.841Z,22.73
2018-07-04T01:12:08.424Z,22.76
2018-07-04T01:13:09.013Z,22.83
2018-07-04T01:14:09.597Z,22.76
2018-07-04T01:15:10.227Z,22.69
2018-07-04T01:16:10.864Z,22.76
2018-07-04T01:17:11.658Z,22.70
2018-07-04T01:18:12.279Z,22.70
2018-07-04T01:19:12.866Z,22.72
2018-07-04T01:20:13.455Z,22.76
2018-07-04T01:21:14.040Z,22.72
2018-07-04T01:22:14.698Z,22.73
2018-07-04T01:23:15.258Z,22.70
2018-07-04T01:24:15.841Z,22.73
2018-07-04T01:25:16.425Z,22.72
2018-07-04T01:26:17.013Z,22.70
2018-07-04T01:27:17.596Z,22.72
2018-07-04T01:28:18.231Z,22.72
2018-07-04T01:29:18.814Z,22.68
2018-07-04T01:30:19.402Z,22.68
2018-07-04T01:31:19.982Z,22.68
2018-07-04T01:32:20.570Z,22.69
2018-07-04T01:33:21.158Z,22.68
2018-07-04T01:34:21.744Z,22.68
2018-07-04T01:35:22.330Z,22.62
2018-07-04T01:36:23.060Z,22.66
2018-07-04T01:37:23.644Z,22.65
2018-07-04T01:38:24.228Z,22.63
2018-07-04T01:39:24.817Z,22.62
2018-07-04T01:40:25.452Z,22.62
2018-07-04T01:41:26.037Z,22.66
2018-07-04T01:42:26.622Z,22.60
2018-07-04T01:43:27.208Z,22.60
2018-07-04T01:44:27.792Z,22.63
2018-07-04T01:45:28.373Z,22.68
2018-07-04T01:46:28.958Z,22.63
2018-07-04T01:47:29.548Z,22.63
2018-07-04T01:48:30.128Z,22.63
2018-07-04T01:49:30.755Z,22.57
2018-07-04T01:50:31.341Z,22.60
2018-07-04T01:51:31.929Z,22.57
2018-07-04T01:52:32.514Z,22.65
2018-07-04T01:53:33.098Z,22.60
2018-07-04T01:54:33.727Z,22.62
2018-07-04T01:55:34.310Z,22.65
2018-07-04T01:56:35.048Z,22.57
2018-07-04T01:57:35.625Z,22.63
2018-07-04T01:58:36.214Z,22.62
2018-07-04T01:59:36.849Z,22.57
2018-07-04T02:00:37.436Z,22.62
2018-07-04T02:01:38.019Z,22.63
2018-07-04T02:02:38.595Z,22.63
2018-07-04T02:03:39.177Z,22.63
2018-07-04T02:04:39.765Z,22.51
2018-07-04T02:05:40.347Z,22.57
2018-07-04T02:06:40.927Z,22.60
2018-07-04T02:07:41.554Z,22.60
2018-07-04T02:08:42.194Z,22.53
2018-07-04T02:09:42.778Z,22.62
2018-07-04T02:10:43.362Z,22.50
2018-07-04T02:11:43.944Z,22.53
2018-07-04T02:12:44.534Z,22.54
2018-07-04T02:13:45.162Z,22.48
2018-07-04T02:14:45.743Z,22.51
2018-07-04T02:15:46.329Z,22.50
2018-07-04T02:16:46.914Z,22.57
2018-07-04T02:17:47.508Z,22.59
2018-07-04T02:18:48.135Z,22.53
2018-07-04T02:19:48.767Z,22.51
2018-07-04T02:20:49.350Z,22.45
2018-07-04T02:21:49.933Z,22.48
2018-07-04T02:22:50.517Z,22.51
2018-07-04T02:23:51.100Z,22.50
2018-07-04T02:24:51.735Z,22.47
2018-07-04T02:25:52.313Z,22.47
2018-07-04T02:26:52.906Z,22.48
2018-07-04T02:27:53.483Z,22.44
2018-07-04T02:28:54.072Z,22.47
2018-07-04T02:29:54.701Z,22.53
2018-07-04T02:30:55.335Z,22.38
2018-07-04T02:31:55.922Z,22.44
2018-07-04T02:32:56.557Z,22.39
2018-07-04T02:33:57.140Z,22.48
2018-07-04T02:34:57.721Z,22.38
2018-07-04T02:35:58.304Z,22.39
2018-07-04T02:36:58.941Z,22.41
2018-07-04T02:37:59.527Z,22.36
2018-07-04T02:39:00.117Z,22.43
2018-07-04T02:40:00.758Z,22.38
2018-07-04T02:41:01.334Z,22.38
2018-07-04T02:42:01.913Z,22.43
2018-07-04T02:43:02.551Z,22.36
2018-07-04T02:44:03.137Z,22.43
2018-07-04T02:45:03.776Z,22.39
2018-07-04T02:46:04.309Z,22.41
2018-07-04T02:47:04.889Z,22.43
2018-07-04T02:48:05.523Z,22.41
2018-07-04T02:49:06.112Z,22.45
2018-07-04T02:50:06.698Z,22.41
2018-07-04T02:51:07.280Z,22.44
2018-07-04T02:52:07.918Z,22.43
2018-07-04T02:53:08.498Z,22.43
2018-07-04T02:54:09.094Z,22.45
2018-07-04T02:55:09.725Z,22.43
2018-07-04T02:56:10.311Z,22.38
2018-07-04T02:57:10.899Z,22.41
2018-07-04T02:58:11.485Z,22.44
2018-07-04T02:59:12.073Z,22.43
2018-07-04T03:00:12.729Z,22.47
2018-07-04T03:01:13.277Z,22.45
2018-07-04T03:02:13.865Z,22.36
2018-07-04T03:03:14.451Z,22.35
2018-07-04T03:04:15.046Z,22.36
2018-07-04T03:05:15.622Z,22.32
2018-07-04T03:06:16.246Z,22.38
2018-07-04T03:07:16.836Z,22.41
2018-07-04T03:08:17.464Z,22.36
2018-07-04T03:09:18.052Z,22.35
2018-07-04T03:10:18.638Z,22.28
2018-07-04T03:11:19.272Z,22.43
2018-07-04T03:12:19.856Z,22.25
2018-07-04T03:13:20.441Z,22.28
2018-07-04T03:14:21.029Z,22.30
2018-07-04T03:15:21.657Z,22.30
2018-07-04T03:16:22.246Z,22.38
2018-07-04T03:17:22.883Z,22.28
2018-07-04T03:18:23.468Z,22.23
2018-07-04T03:19:24.053Z,22.23
2018-07-04T03:20:24.638Z,22.38
2018-07-04T03:21:25.222Z,22.26
2018-07-04T03:22:25.805Z,22.26
2018-07-04T03:23:26.389Z,22.29
2018-07-04T03:24:26.975Z,22.33
2018-07-04T03:25:27.761Z,22.25
2018-07-04T03:26:28.347Z,22.28
2018-07-04T03:27:28.981Z,22.32
2018-07-04T03:28:29.557Z,22.29
2018-07-04T03:29:30.144Z,22.30
2018-07-04T03:30:30.728Z,22.32
2018-07-04T03:31:31.313Z,22.23
2018-07-04T03:32:31.894Z,22.26
2018-07-04T03:33:32.479Z,22.25
2018-07-04T03:34:33.059Z,22.23
2018-07-04T03:35:33.684Z,22.32
2018-07-04T03:36:34.272Z,22.22
2018-07-04T03:37:34.852Z,22.29
2018-07-04T03:38:35.493Z,22.22
2018-07-04T03:39:36.117Z,22.20
2018-07-04T03:40:36.707Z,22.25
2018-07-04T03:41:37.291Z,22.25
2018-07-04T03:42:37.876Z,22.28
2018-07-04T03:43:38.512Z,22.26
2018-07-04T03:44:39.149Z,22.22
2018-07-04T03:45:39.735Z,22.25
2018-07-04T03:46:40.321Z,22.28
2018-07-04T03:47:40.904Z,22.22
2018-07-04T03:48:41.486Z,22.23
2018-07-04T03:49:42.124Z,22.15
2018-07-04T03:50:42.711Z,22.18
2018-07-04T03:51:43.290Z,22.23
2018-07-04T03:52:43.878Z,22.28
2018-07-04T03:53:44.512Z,22.18
2018-07-04T03:54:45.098Z,22.14
2018-07-04T03:55:45.728Z,22.23
2018-07-04T03:56:46.312Z,22.13
2018-07-04T03:57:46.903Z,22.13
2018-07-04T03:58:47.492Z,22.17
2018-07-04T03:59:48.065Z,22.13
2018-07-04T04:00:48.647Z,22.13
2018-07-04T04:01:49.235Z,22.17
2018-07-04T04:02:49.872Z,22.10
2018-07-04T04:03:50.454Z,22.18
2018-07-04T04:04:51.030Z,22.14
2018-07-04T04:05:51.662Z,22.13
2018-07-04T04:06:52.247Z,22.11
2018-07-04T04:07:52.829Z,22.14
2018-07-04T04:08:53.420Z,22.10
2018-07-04T04:09:54.056Z,22.18
2018-07-04T04:10:54.641Z,22.10
2018-07-04T04:11:55.221Z,22.13
2018-07-04T04:12:55.811Z,22.13
2018-07-04T04:13:56.396Z,22.10
2018-07-04T04:14:56.982Z,22.13
2018-07-04T04:15:57.564Z,22.11
2018-07-04T04:16:58.152Z,22.15
2018-07-04T04:17:58.739Z,22.15
2018-07-04T04:18:59.327Z,22.17
2018-07-04T04:19:59.959Z,22.14
2018-07-04T04:21:00.595Z,22.13
2018-07-04T04:22:01.178Z,22.11
2018-07-04T04:23:01.809Z,22.08
2018-07-04T04:24:02.398Z,22.11
2018-07-04T04:25:02.981Z,22.14
2018-07-04T04:26:03.568Z,22.13
2018-07-04T04:27:04.161Z,22.15
2018-07-04T04:28:04.784Z,22.14
2018-07-04T04:29:05.369Z,22.14
2018-07-04T04:30:05.956Z,22.08
2018-07-04T04:31:06.537Z,22.07
2018-07-04T04:32:07.161Z,22.04
2018-07-04T04:33:07.741Z,22.08
2018-07-04T04:34:08.326Z,22.07
2018-07-04T04:35:08.914Z,22.02
2018-07-04T04:36:09.497Z,22.00
2018-07-04T04:37:10.080Z,22.07
2018-07-04T04:38:10.664Z,22.07
2018-07-04T04:39:11.240Z,22.04
2018-07-04T04:40:11.879Z,22.04
2018-07-04T04:41:12.463Z,22.07
2018-07-04T04:42:13.097Z,22.04
2018-07-04T04:43:13.681Z,22.04
2018-07-04T04:44:14.264Z,22.02
2018-07-04T04:45:14.849Z,22.07
2018-07-04T04:46:15.483Z,22.07
2018-07-04T04:47:16.070Z,22.07
2018-07-04T04:48:16.647Z,22.10
2018-07-04T04:49:17.234Z,22.10
2018-07-04T04:50:17.821Z,22.08
2018-07-04T04:51:18.401Z,22.10
2018-07-04T04:52:19.041Z,22.07
2018-07-04T04:53:19.625Z,22.11
2018-07-04T04:54:20.210Z,22.04
2018-07-04T04:55:20.793Z,22.02
2018-07-04T04:56:21.375Z,22.11
2018-07-04T04:57:21.966Z,22.07
2018-07-04T04:58:22.594Z,22.10
2018-07-04T04:59:23.184Z,21.98
2018-07-04T05:00:23.768Z,22.02
2018-07-04T05:01:24.405Z,22.07
2018-07-04T05:02:24.990Z,22.02
2018-07-04T05:03:25.579Z,22.04
2018-07-04T05:04:26.162Z,22.06
2018-07-04T05:05:26.751Z,22.06
2018-07-04T05:06:27.332Z,22.04
2018-07-04T05:07:27.917Z,22.04
2018-07-04T05:08:28.506Z,21.96
2018-07-04T05:09:29.137Z,21.93
2018-07-04T05:10:29.726Z,22.00
2018-07-04T05:11:30.308Z,21.96
2018-07-04T05:12:30.891Z,21.93
2018-07-04T05:13:31.528Z,21.92
2018-07-04T05:14:32.116Z,21.92
2018-07-04T05:15:32.749Z,22.04
2018-07-04T05:16:33.381Z,21.95
2018-07-04T05:17:33.968Z,22.04
2018-07-04T05:18:34.552Z,21.92
2018-07-04T05:19:35.143Z,21.92
2018-07-04T05:20:35.726Z,21.93
2018-07-04T05:21:36.312Z,21.93
2018-07-04T05:22:36.943Z,21.91
2018-07-04T05:23:37.477Z,22.02
2018-07-04T05:24:38.058Z,21.93
2018-07-04T05:25:38.645Z,21.91
2018-07-04T05:26:39.233Z,21.92
2018-07-04T05:27:39.849Z,21.92
2018-07-04T05:28:40.434Z,22.02
2018-07-04T05:29:41.067Z,21.99
2018-07-04T05:30:41.750Z,21.95
2018-07-04T05:31:42.337Z,21.98
2018-07-04T05:32:43.017Z,21.99
2018-07-04T05:33:43.605Z,21.96
2018-07-04T05:34:44.191Z,21.92
2018-07-04T05:35:44.770Z,21.95
2018-07-04T05:36:45.359Z,21.92
2018-07-04T05:37:45.944Z,21.99
2018-07-04T05:38:46.526Z,21.93
2018-07-04T05:39:47.166Z,21.95
2018-07-04T05:40:47.750Z,22.00
2018-07-04T05:41:48.330Z,21.99
2018-07-04T05:42:48.911Z,21.96
2018-07-04T05:43:49.498Z,21.96
2018-07-04T05:44:50.083Z,21.92
2018-07-04T05:45:50.666Z,21.89
2018-07-04T05:46:51.306Z,21.89
2018-07-04T05:47:51.883Z,21.91
2018-07-04T05:48:52.477Z,21.92
2018-07-04T05:49:53.109Z,21.91
2018-07-04T05:50:53.740Z,21.95
2018-07-04T05:51:54.329Z,21.89
2018-07-04T05:52:54.952Z,21.92
2018-07-04T05:53:55.546Z,21.89
2018-07-04T05:54:56.122Z,21.87
2018-07-04T05:55:56.709Z,21.87
2018-07-04T05:56:57.297Z,21.82
2018-07-04T05:57:57.933Z,21.85
2018-07-04T05:58:58.519Z,21.89
2018-07-04T05:59:59.104Z,21.89
2018-07-04T06:00:59.684Z,21.89
2018-07-04T06:02:00.269Z,21.95
2018-07-04T06:03:00.857Z,21.89
2018-07-04T06:04:01.441Z,21.91
2018-07-04T06:05:02.019Z,21.89
2018-07-04T06:06:02.661Z,21.95
2018-07-04T06:07:03.250Z,21.87
2018-07-04T06:08:03.878Z,22.02
2018-07-04T06:09:04.567Z,21.80
2018-07-04T06:10:05.183Z,21.89
2018-07-04T06:11:05.723Z,21.92
2018-07-04T06:12:06.309Z,21.89
2018-07-04T06:13:06.894Z,21.92
2018-07-04T06:14:07.473Z,22.04
2018-07-04T06:15:08.088Z,21.95
2018-07-04T06:16:08.648Z,21.89
2018-07-04T06:17:09.235Z,21.87
2018-07-04T06:18:09.875Z,21.89
2018-07-04T06:19:10.458Z,21.85
2018-07-04T06:20:11.044Z,21.92
2018-07-04T06:21:11.621Z,21.85
2018-07-04T06:22:12.213Z,21.92
2018-07-04T06:23:12.839Z,21.99
2018-07-04T06:24:13.421Z,21.96
2018-07-04T06:25:14.005Z,21.89
2018-07-04T06:26:14.640Z,22.04
2018-07-04T06:27:15.222Z,21.87
2018-07-04T06:28:15.806Z,21.95
2018-07-04T06:29:16.390Z,21.91
2018-07-04T06:30:16.978Z,21.96
2018-07-04T06:31:17.564Z,21.89
2018-07-04T06:32:18.149Z,21.92
2018-07-04T06:33:18.765Z,21.87
2018-07-04T06:34:19.397Z,21.96
2018-07-04T06:35:19.980Z,21.99
2018-07-04T06:36:20.571Z,21.92
2018-07-04T06:37:21.204Z,21.87
2018-07-04T06:38:21.785Z,21.89
2018-07-04T06:39:22.373Z,21.92
2018-07-04T06:40:22.953Z,21.96
2018-07-04T06:41:23.534Z,21.91
2018-07-04T06:42:24.120Z,21.96
2018-07-04T06:43:24.755Z,21.99
2018-07-04T06:44:25.383Z,21.95
2018-07-04T06:45:25.973Z,21.98
2018-07-04T06:46:26.555Z,21.93
2018-07-04T06:47:27.141Z,21.91
2018-07-04T06:48:27.727Z,21.92
2018-07-04T06:49:28.310Z,21.95
2018-07-04T06:50:28.894Z,21.91
2018-07-04T06:51:29.479Z,22.02
2018-07-04T06:52:30.065Z,21.95
2018-07-04T06:53:30.704Z,21.92
2018-07-04T06:54:31.317Z,22.00
2018-07-04T06:55:31.914Z,21.92
2018-07-04T06:56:32.547Z,21.93
2018-07-04T06:57:33.128Z,21.95
2018-07-04T06:58:33.709Z,22.04
2018-07-04T06:59:34.296Z,21.96
2018-07-04T07:00:34.872Z,21.85
2018-07-04T07:01:35.462Z,21.85
2018-07-04T07:02:36.047Z,21.98
2018-07-04T07:03:36.632Z,22.02
2018-07-04T07:04:37.212Z,21.85
2018-07-04T07:05:37.803Z,22.02
2018-07-04T07:06:38.389Z,22.02
2018-07-04T07:07:39.031Z,21.93
2018-07-04T07:08:39.679Z,21.92
2018-07-04T07:09:40.285Z,21.92
2018-07-04T07:10:40.862Z,21.92
2018-07-04T07:11:41.444Z,21.92
2018-07-04T07:12:42.084Z,21.87
2018-07-04T07:13:42.717Z,21.89
2018-07-04T07:14:43.302Z,21.91
2018-07-04T07:15:43.888Z,21.95
2018-07-04T07:16:44.475Z,21.98
2018-07-04T07:17:45.061Z,21.87
2018-07-04T07:18:45.643Z,21.99
2018-07-04T07:19:46.230Z,21.91
2018-07-04T07:20:46.810Z,21.98
2018-07-04T07:21:47.396Z,22.00
2018-07-04T07:22:48.028Z,21.99
2018-07-04T07:23:48.610Z,22.00
2018-07-04T07:24:49.245Z,22.00
2018-07-04T07:25:49.831Z,21.93
2018-07-04T07:26:50.411Z,22.00
2018-07-04T07:27:51.002Z,21.87
2018-07-04T07:28:51.629Z,21.99
2018-07-04T07:29:52.208Z,21.93
2018-07-04T07:30:52.846Z,21.96
2018-07-04T07:31:53.450Z,21.98
2018-07-04T07:32:54.012Z,21.99
2018-07-04T07:33:54.616Z,21.96
2018-07-04T07:34:55.179Z,21.96
2018-07-04T07:35:55.764Z,21.99
2018-07-04T07:36:56.346Z,22.00
2018-07-04T07:37:56.927Z,22.00
2018-07-04T07:38:57.515Z,21.99
2018-07-04T07:39:58.145Z,22.00
2018-07-04T07:40:58.785Z,21.99
2018-07-04T07:41:59.415Z,22.00
2018-07-04T07:42:59.955Z,22.04
2018-07-04T07:44:00.535Z,22.06
2018-07-04T07:45:01.124Z,22.00
2018-07-04T07:46:01.708Z,22.08
2018-07-04T07:47:02.346Z,22.08
2018-07-04T07:48:02.930Z,22.06
2018-07-04T07:49:03.507Z,22.11
2018-07-04T07:50:04.138Z,22.07
2018-07-04T07:51:04.716Z,22.07
2018-07-04T07:52:05.305Z,22.07
2018-07-04T07:53:05.889Z,22.07
2018-07-04T07:54:06.531Z,22.07
2018-07-04T07:55:07.253Z,22.07
2018-07-04T07:56:07.841Z,22.06
2018-07-04T07:57:08.422Z,22.06
2018-07-04T07:58:09.007Z,22.06
2018-07-04T07:59:09.783Z,22.08
2018-07-04T08:00:10.371Z,22.00
2018-07-04T08:01:10.953Z,22.06
2018-07-04T08:02:11.535Z,22.08
2018-07-04T08:03:12.169Z,22.04
2018-07-04T08:04:12.755Z,22.06
2018-07-04T08:05:13.341Z,22.02
2018-07-04T08:06:13.926Z,22.08
2018-07-04T08:07:14.516Z,22.06
2018-07-04T08:08:15.145Z,22.02
2018-07-04T08:09:15.729Z,22.07
2018-07-04T08:10:16.309Z,22.08
2018-07-04T08:11:16.893Z,22.10
2018-07-04T08:12:17.522Z,22.04
2018-07-04T08:13:18.109Z,22.04
2018-07-04T08:14:18.689Z,22.00
2018-07-04T08:15:19.282Z,22.04
2018-07-04T08:16:19.861Z,22.06
2018-07-04T08:17:20.449Z,22.04
2018-07-04T08:18:21.028Z,22.02
2018-07-04T08:19:21.613Z,22.02
2018-07-04T08:20:22.252Z,22.04
2018-07-04T08:21:22.833Z,22.07
2018-07-04T08:22:23.473Z,22.04
2018-07-04T08:23:24.102Z,22.02
2018-07-04T08:24:24.684Z,22.08
2018-07-04T08:25:25.272Z,22.06
2018-07-04T08:26:25.870Z,22.10
2018-07-04T08:27:26.492Z,21.99
2018-07-04T08:28:27.080Z,22.00
2018-07-04T08:29:27.660Z,22.07
2018-07-04T08:30:28.246Z,22.08
2018-07-04T08:31:28.831Z,22.08
2018-07-04T08:32:29.414Z,22.08
2018-07-04T08:33:30.061Z,21.98
2018-07-04T08:34:30.585Z,21.99
2018-07-04T08:35:31.221Z,22.04
2018-07-04T08:36:31.811Z,22.06
2018-07-04T08:37:32.442Z,22.07
2018-07-04T08:38:33.027Z,22.00
2018-07-04T08:39:33.611Z,22.04
2018-07-04T08:40:34.195Z,22.07
2018-07-04T08:41:34.833Z,22.10
2018-07-04T08:42:35.415Z,22.04
2018-07-04T08:43:35.993Z,22.06
2018-07-04T08:44:36.629Z,22.06
2018-07-04T08:45:37.169Z,22.14
2018-07-04T08:46:37.799Z,22.06
2018-07-04T08:47:38.383Z,22.07
2018-07-04T08:48:38.968Z,22.08
2018-07-04T08:49:39.552Z,22.06
2018-07-04T08:50:40.201Z,22.07
2018-07-04T08:51:40.768Z,22.14
2018-07-04T08:52:41.371Z,22.08
2018-07-04T08:53:41.935Z,22.04
2018-07-04T08:54:42.524Z,22.06
2018-07-04T08:55:43.109Z,22.14
2018-07-04T08:56:43.744Z,22.07
2018-07-04T08:57:44.331Z,22.13
2018-07-04T08:58:44.912Z,22.11
2018-07-04T08:59:45.498Z,22.08
2018-07-04T09:00:46.082Z,22.10
2018-07-04T09:01:46.668Z,22.13
2018-07-04T09:02:47.251Z,22.15
2018-07-04T09:03:47.885Z,22.15
2018-07-04T09:04:48.471Z,22.15
2018-07-04T09:05:49.053Z,22.14
2018-07-04T09:06:49.633Z,22.14
2018-07-04T09:07:50.266Z,22.14
2018-07-04T09:08:50.854Z,22.10
2018-07-04T09:09:51.432Z,22.11
2018-07-04T09:10:52.070Z,22.11
2018-07-04T09:11:52.703Z,22.11
2018-07-04T09:12:53.236Z,22.13
2018-07-04T09:13:53.824Z,22.15
2018-07-04T09:14:54.410Z,22.23
2018-07-04T09:15:54.999Z,22.22
2018-07-04T09:16:55.580Z,22.20
2018-07-04T09:17:56.169Z,22.17
2018-07-04T09:18:56.751Z,22.18
2018-07-04T09:19:57.339Z,22.22
2018-07-04T09:20:57.917Z,22.23
2018-07-04T09:21:58.505Z,22.23
2018-07-04T09:22:59.143Z,22.23
2018-07-04T09:23:59.731Z,22.26
2018-07-04T09:25:00.314Z,22.23
2018-07-04T09:26:00.905Z,22.23
2018-07-04T09:27:01.684Z,22.25
2018-07-04T09:28:02.270Z,22.25
2018-07-04T09:29:02.906Z,22.23
2018-07-04T09:30:03.492Z,22.33
2018-07-04T09:31:04.077Z,22.36
2018-07-04T09:32:04.711Z,22.29
2018-07-04T09:33:05.299Z,22.25
2018-07-04T09:34:05.884Z,22.26
2018-07-04T09:35:06.469Z,22.26
2018-07-04T09:36:07.047Z,22.43
2018-07-04T09:37:07.636Z,22.36
2018-07-04T09:38:08.467Z,22.39
2018-07-04T09:39:09.054Z,22.35
2018-07-04T09:40:09.639Z,22.38
2018-07-04T09:41:10.230Z,22.36
2018-07-04T09:42:10.866Z,22.36
2018-07-04T09:43:11.452Z,22.36
2018-07-04T09:44:12.088Z,22.39
2018-07-04T09:45:12.673Z,22.41
2018-07-04T09:46:13.253Z,22.44
2018-07-04T09:47:13.847Z,22.41
2018-07-04T09:48:14.471Z,22.41
2018-07-04T09:49:15.061Z,22.43
2018-07-04T09:50:15.648Z,22.41
2018-07-04T09:51:16.235Z,22.36
2018-07-04T09:52:16.822Z,22.36
2018-07-04T09:53:17.407Z,22.45
2018-07-04T09:54:17.994Z,22.39
2018-07-04T09:55:18.576Z,22.38
2018-07-04T09:56:19.211Z,22.43
2018-07-04T09:57:19.853Z,22.47
2018-07-04T09:58:20.439Z,22.48
2018-07-04T09:59:21.020Z,22.47
2018-07-04T10:00:21.604Z,22.53
2018-07-04T10:01:22.190Z,22.50
2018-07-04T10:02:22.782Z,22.47
2018-07-04T10:03:23.408Z,22.48
2018-07-04T10:04:24.050Z,22.51
2018-07-04T10:05:24.629Z,22.51
2018-07-04T10:06:25.219Z,22.45
2018-07-04T10:07:25.802Z,22.62
2018-07-04T10:08:26.391Z,22.59
2018-07-04T10:09:26.971Z,22.60
2018-07-04T10:10:27.559Z,22.63
2018-07-04T10:11:28.148Z,22.55
2018-07-04T10:12:28.733Z,22.63
2018-07-04T10:13:29.366Z,22.59
2018-07-04T10:14:29.999Z,22.60
2018-07-04T10:15:30.589Z,22.63
2018-07-04T10:16:31.225Z,22.65
2018-07-04T10:17:31.806Z,22.63
2018-07-04T10:18:32.445Z,22.65
2018-07-04T10:19:33.038Z,22.62
2018-07-04T10:20:33.668Z,22.62
2018-07-04T10:21:34.247Z,22.60
2018-07-04T10:22:34.836Z,22.63
2018-07-04T10:23:35.471Z,22.70
2018-07-04T10:24:36.080Z,22.66
2018-07-04T10:25:36.644Z,22.70
2018-07-04T10:26:37.229Z,22.65
2018-07-04T10:27:37.812Z,22.68
2018-07-04T10:28:38.601Z,22.72
2018-07-04T10:29:39.188Z,22.72
2018-07-04T10:30:39.771Z,22.69
2018-07-04T10:31:40.353Z,22.72
2018-07-04T10:32:40.939Z,22.72
2018-07-04T10:33:41.580Z,22.70
2018-07-04T10:34:42.175Z,22.72
2018-07-04T10:35:42.812Z,22.70
2018-07-04T10:36:43.393Z,22.73
2018-07-04T10:37:43.988Z,22.72
2018-07-04T10:38:44.567Z,22.80
2018-07-04T10:39:45.156Z,22.69
2018-07-04T10:40:45.744Z,22.72
2018-07-04T10:41:46.327Z,22.80
2018-07-04T10:42:46.917Z,22.76
2018-07-04T10:43:47.494Z,22.75
2018-07-04T10:44:48.153Z,22.73
2018-07-04T10:45:48.667Z,22.81
2018-07-04T10:46:49.259Z,22.78
2018-07-04T10:47:49.889Z,22.76
2018-07-04T10:48:50.478Z,22.76
2018-07-04T10:49:51.114Z,22.84
2018-07-04T10:50:51.743Z,22.76
2018-07-04T10:51:52.336Z,22.75
2018-07-04T10:52:52.922Z,22.80
2018-07-04T10:53:53.504Z,22.73
2018-07-04T10:54:54.090Z,22.78
2018-07-04T10:55:54.668Z,22.75
2018-07-04T10:56:55.259Z,22.78
2018-07-04T10:57:55.843Z,22.75
2018-07-04T10:58:56.429Z,22.80
2018-07-04T10:59:57.018Z,22.80
2018-07-04T11:00:57.607Z,22.80
2018-07-04T11:01:58.190Z,22.75
2018-07-04T11:02:58.778Z,22.85
2018-07-04T11:03:59.365Z,22.81
2018-07-04T11:04:59.951Z,22.85
2018-07-04T11:06:00.538Z,22.90
2018-07-04T11:07:01.124Z,22.83
2018-07-04T11:08:01.761Z,22.80
2018-07-04T11:09:02.342Z,22.84
2018-07-04T11:10:02.934Z,22.87
2018-07-04T11:11:03.566Z,22.87
2018-07-04T11:12:04.155Z,22.84
2018-07-04T11:13:04.787Z,22.90
2018-07-04T11:14:05.370Z,22.85
2018-07-04T11:15:05.959Z,22.87
2018-07-04T11:16:06.541Z,22.88
2018-07-04T11:17:07.188Z,22.87
2018-07-04T11:18:07.721Z,22.90
2018-07-04T11:19:08.307Z,22.91
2018-07-04T11:20:08.890Z,22.91
2018-07-04T11:21:09.477Z,22.96
2018-07-04T11:22:10.103Z,22.94
2018-07-04T11:23:10.742Z,22.90
2018-07-04T11:24:11.329Z,22.90
2018-07-04T11:25:11.917Z,22.98
2018-07-04T11:26:12.506Z,22.94
2018-07-04T11:27:13.089Z,22.88
2018-07-04T11:28:13.727Z,22.96
2018-07-04T11:29:14.317Z,22.94
2018-07-04T11:30:15.102Z,22.98
2018-07-04T11:31:15.886Z,22.99
2018-07-04T11:32:16.720Z,22.99
2018-07-04T11:33:17.307Z,22.96
2018-07-04T11:34:17.894Z,22.98
2018-07-04T11:35:18.479Z,22.96
2018-07-04T11:36:19.119Z,22.98
2018-07-04T11:37:19.704Z,22.85
2018-07-04T11:38:20.323Z,22.99
2018-07-04T11:39:20.881Z,22.98
2018-07-04T11:40:21.473Z,22.83
2018-07-04T11:41:22.056Z,22.93
2018-07-04T11:42:22.638Z,22.96
2018-07-04T11:43:23.229Z,23.02
2018-07-04T11:44:23.864Z,23.00
2018-07-04T11:45:24.452Z,22.90
2018-07-04T11:46:25.089Z,23.00
2018-07-04T11:47:25.673Z,23.02
2018-07-04T11:48:26.256Z,22.91
2018-07-04T11:49:26.852Z,23.00
2018-07-04T11:50:27.436Z,23.00
2018-07-04T11:51:28.023Z,23.00
2018-07-04T11:52:28.810Z,23.03
2018-07-04T11:53:29.396Z,23.03
2018-07-04T11:54:29.978Z,23.03
2018-07-04T11:55:30.568Z,23.00
2018-07-04T11:56:31.192Z,23.02
2018-07-04T11:57:31.746Z,23.02
2018-07-04T11:58:32.324Z,23.06
2018-07-04T11:59:32.911Z,23.00
2018-07-04T12:00:33.495Z,23.08
2018-07-04T12:01:34.080Z,23.08
2018-07-04T12:02:34.721Z,23.00
2018-07-04T12:03:35.308Z,23.03
2018-07-04T12:04:35.895Z,23.06
2018-07-04T12:05:36.550Z,23.00
2018-07-04T12:06:37.121Z,23.13
2018-07-04T12:07:37.707Z,23.02
2018-07-04T12:08:38.293Z,23.02
2018-07-04T12:09:38.881Z,23.02
2018-07-04T12:10:39.518Z,23.08
2018-07-04T12:11:40.099Z,23.12
2018-07-04T12:12:40.685Z,23.21
2018-07-04T12:13:41.284Z,23.09
2018-07-04T12:14:41.904Z,23.15
2018-07-04T12:15:42.493Z,23.15
2018-07-04T12:16:43.076Z,23.13
2018-07-04T12:17:43.668Z,23.20
2018-07-04T12:18:44.351Z,23.17
2018-07-04T12:19:44.936Z,23.17
2018-07-04T12:20:45.528Z,23.17
2018-07-04T12:21:46.160Z,23.15
2018-07-04T12:22:46.779Z,23.17
2018-07-04T12:23:47.367Z,23.15
2018-07-04T12:24:47.996Z,23.12
2018-07-04T12:25:48.582Z,23.20
2018-07-04T12:26:49.218Z,23.25
2018-07-04T12:27:49.752Z,23.17
2018-07-04T12:28:50.342Z,23.21
2018-07-04T12:29:50.935Z,23.18
2018-07-04T12:30:51.517Z,23.18
2018-07-04T12:31:52.107Z,23.21
2018-07-04T12:32:52.743Z,23.20
2018-07-04T12:33:53.330Z,23.21
2018-07-04T12:34:53.917Z,23.17
2018-07-04T12:35:54.504Z,23.15
2018-07-04T12:36:55.137Z,23.18
2018-07-04T12:37:55.727Z,23.17
2018-07-04T12:38:56.305Z,23.18
2018-07-04T12:39:56.890Z,23.03
2018-07-04T12:40:57.480Z,23.17
2018-07-04T12:41:58.112Z,23.20
2018-07-04T12:42:58.700Z,23.18
2018-07-04T12:43:59.333Z,23.18
2018-07-04T12:44:59.921Z,23.20
2018-07-04T12:46:00.510Z,23.24
2018-07-04T12:47:01.120Z,23.18
2018-07-04T12:48:01.780Z,23.15
2018-07-04T12:49:02.406Z,23.18
2018-07-04T12:50:02.994Z,23.18
2018-07-04T12:51:03.602Z,23.12
2018-07-04T12:52:04.169Z,23.13
2018-07-04T12:53:04.807Z,23.17
2018-07-04T12:54:05.496Z,23.15
2018-07-04T12:55:05.975Z,23.18
2018-07-04T12:56:06.564Z,23.18
2018-07-04T12:57:07.150Z,23.21
2018-07-04T12:58:07.737Z,23.12
2018-07-04T12:59:08.318Z,23.20
2018-07-04T13:00:08.958Z,23.15
2018-07-04T13:01:09.545Z,23.18
2018-07-04T13:02:10.133Z,23.15
2018-07-04T13:03:10.765Z,23.12
2018-07-04T13:04:11.354Z,23.15